Time;durP1;ratioP1;P1;durP2;ratioP2;P2;SDS_P1;SDS_P2;PMS_P1;PMS_P2;Temp;Humidity;BMP_temperature;BMP_pressure;BME280_temperature;BME280_humidity;BME280_pressure;Samples;Min_cycle;Max_cycle;Signal;HPM_P1;HPM_P2
2021/12/31 00:02:32;;;;;;;;;;;;;;;;;;;;;
2021/12/31 00:06:10;;;;;;;11.60;8.83;;;;;;;11.28;63.40;99632.48;1995255;97;25836;-90
2021/12/31 00:09:59;;;;;;;9.93;8.40;;;;;;;11.29;63.34;99631.61;1997226;97;25836;-90
2021/12/31 00:13:46;;;;;;;12.65;9.08;;;;;;;11.29;63.27;99628.57;2009984;97;25794;-91
2021/12/31 00:17:09;;;;;;;12.37;8.63;;;;;;;11.29;63.24;99623.35;2021374;96;25918;-82
2021/12/31 00:20:55;;;;;;;11.43;8.25;;;;;;;11.28;63.21;99622.05;2021783;93;25857;-90
2021/12/31 00:24:36;;;;;;;8.60;7.70;;;;;;;11.28;63.19;99630.75;2090399;92;25874;-88
2021/12/31 00:28:11;;;;;;;11.55;8.10;;;;;;;11.27;63.17;99636.84;2155267;90;25811;-87
2021/12/31 00:31:34;;;;;;;10.48;8.33;;;;;;;11.26;63.15;99644.20;2227033;87;25731;-85
2021/12/31 00:35:09;;;;;;;9.70;8.58;;;;;;;11.26;63.14;99649.41;2173617;91;25696;-81
2021/12/31 00:38:39;;;;;;;11.33;7.97;;;;;;;11.26;63.13;99646.80;2173534;90;25319;-83
2021/12/31 00:42:13;;;;;;;9.35;8.20;;;;;;;11.26;63.09;99645.50;2173973;90;25681;-86
2021/12/31 00:45:47;;;;;;;8.98;8.05;;;;;;;11.25;63.08;99638.55;2172977;90;25691;-92
2021/12/31 00:49:31;;;;;;;9.75;8.28;;;;;;;11.26;63.08;99649.84;2082145;93;26036;-89
2021/12/31 00:52:51;;;;;;;11.05;7.85;;;;;;;11.26;63.03;99644.63;2143965;91;25792;-87
2021/12/31 00:56:31;;;;;;;8.60;7.80;;;;;;;11.25;63.04;99651.59;2149614;91;25699;-84
2021/12/31 01:00:00;;;;;;;9.55;8.08;;;;;;;11.25;63.02;99650.72;2147759;92;25695;-90
2021/12/31 01:03:32;;;;;;;9.25;7.62;;;;;;;11.27;62.98;99656.41;2139754;90;26471;-86
2021/12/31 01:07:11;;;;;;;9.88;7.87;;;;;;;11.26;62.95;99657.24;2142716;90;26482;-90
2021/12/31 01:10:54;;;;;;;10.28;8.48;;;;;;;11.25;62.92;99663.33;2141278;92;25753;-81
2021/12/31 01:14:55;;;;;;;7.92;7.10;;;;;;;11.25;62.90;99658.11;2142075;92;25750;-86
2021/12/31 01:22:32;;;;;;;11.15;8.30;;;;;;;11.24;62.88;99658.98;2123950;89;26039;-89
2021/12/31 01:25:59;;;;;;;10.03;8.83;;;;;;;11.23;62.86;99649.38;2149901;92;26108;-84
2021/12/31 01:29:40;;;;;;;8.63;7.72;;;;;;;11.24;62.85;99646.38;2024263;96;26022;-90
2021/12/31 01:33:20;;;;;;;9.73;7.65;;;;;;;11.23;62.84;99646.77;2054987;94;25889;-90
2021/12/31 01:36:41;;;;;;;9.95;8.35;;;;;;;11.23;62.80;99643.30;2046593;95;25910;-89
2021/12/31 01:40:10;;;;;;;10.85;8.95;;;;;;;11.23;62.81;99647.20;2063196;95;25774;-84
2021/12/31 01:44:01;;;;;;;9.55;8.43;;;;;;;11.22;62.79;99655.47;2048463;92;25359;-85
2021/12/31 01:47:46;;;;;;;11.63;9.45;;;;;;;11.22;62.79;99655.91;1994149;97;25763;-81
2021/12/31 01:51:26;;;;;;;9.55;7.95;;;;;;;11.22;62.77;99653.30;1938812;101;25792;-85
2021/12/31 01:55:22;;;;;;;9.08;8.10;;;;;;;11.21;62.76;99638.52;1949035;99;25508;-84
2021/12/31 01:59:11;;;;;;;9.75;8.48;;;;;;;11.20;62.75;99643.27;2019367;95;25885;-86
2021/12/31 02:02:35;;;;;;;9.65;8.23;;;;;;;11.19;62.73;99652.83;2043949;95;25806;-90
2021/12/31 02:06:04;;;;;;;9.20;8.28;;;;;;;11.19;62.72;99658.05;2065141;95;25826;-88
2021/12/31 02:09:49;;;;;;;10.82;9.15;;;;;;;11.20;62.71;99653.70;2045710;95;32392;-88
2021/12/31 02:13:22;;;;;;;9.20;8.25;;;;;;;11.20;62.72;99661.53;2045200;95;25974;-84
2021/12/31 02:16:43;;;;;;;9.60;8.25;;;;;;;11.20;62.71;99663.70;2066667;95;25782;-85
2021/12/31 02:20:33;;;;;;;;;;;;;;;;;;;;;
2021/12/31 02:24:02;;;;;;;8.58;7.70;;;;;;;11.19;62.68;99648.92;2062357;95;25964;-87
2021/12/31 02:27:42;;;;;;;9.43;7.83;;;;;;;11.20;62.65;99641.96;2011651;98;25768;-88
2021/12/31 02:42:49;;;;;;;8.40;7.17;;;;;;;11.21;62.63;99649.82;1866109;101;26565;-81
2021/12/31 02:46:38;;;;;;;9.28;8.25;;;;;;;11.20;62.63;99648.05;1905050;102;25846;-89
2021/12/31 02:54:14;;;;;;;9.28;8.18;;;;;;;11.20;62.62;99666.31;1870753;104;25889;-85
2021/12/31 03:07:21;;;;;;;9.23;8.25;;;;;;;11.20;62.63;99656.31;1918569;101;25360;-93
2021/12/31 03:11:16;;;;;;;8.00;7.15;;;;;;;11.22;62.63;99643.73;1890523;103;25758;-86
2021/12/31 03:14:54;;;;;;;8.13;7.37;;;;;;;11.22;62.65;99651.99;1923073;101;25363;-92
2021/12/31 03:22:28;;;;;;;7.87;7.03;;;;;;;11.23;62.63;99659.82;1912492;102;26016;-86
2021/12/31 03:26:24;;;;;;;;;;;;;;;;;;;;;
2021/12/31 03:29:51;;;;;;;7.62;6.47;;;;;;;11.23;62.64;99645.47;1995369;97;25907;-90
2021/12/31 03:33:31;;;;;;;9.83;7.03;;;;;;;11.25;62.67;99658.55;1964155;99;25796;-82
2021/12/31 03:37:14;;;;;;;;;;;;;;;;;;;;;
2021/12/31 03:44:37;;;;;;;8.48;7.67;;;;;;;11.28;62.69;99666.41;1832075;106;25935;-85
2021/12/31 03:48:20;;;;;;;6.72;6.12;;;;;;;11.28;62.72;99660.75;1842953;105;25880;-86
2021/12/31 03:52:00;;;;;;;8.18;6.85;;;;;;;11.29;62.73;99666.84;1868227;104;25880;-84
2021/12/31 03:55:25;;;;;;;6.83;6.12;;;;;;;11.30;62.75;99655.09;1847615;104;25867;-87
2021/12/31 03:59:14;;;;;;;;;;;;;;;11.31;62.78;99656.87;1836536;104;25904;-93
2021/12/31 04:02:50;;;;;;;7.58;6.72;;;;;;;11.31;62.77;99657.30;1792228;106;25987;-90
2021/12/31 04:06:54;;;;;;;6.62;6.08;;;;;;;11.31;62.78;99657.30;1761155;111;25857;-84
2021/12/31 04:10:55;;;;;;;6.65;6.05;;;;;;;11.32;62.82;99661.66;1760373;110;26067;-89
2021/12/31 04:14:42;;;;;;;6.60;6.00;;;;;;;11.32;62.80;99667.74;1769377;109;26004;-86
2021/12/31 04:26:27;;;;;;;6.42;5.83;;;;;;;11.34;62.82;99659.51;1808865;107;25971;-83
2021/12/31 04:37:15;;;;;;;7.97;6.08;;;;;;;11.38;62.82;99672.59;1861453;104;25864;-81
2021/12/31 04:40:52;;;;;;;6.35;5.75;;;;;;;11.39;62.80;99664.76;1852593;105;25839;-82
2021/12/31 04:44:24;;;;;;;5.83;5.33;;;;;;;11.40;62.77;99663.89;1855383;105;25779;-80
2021/12/31 04:48:01;;;;;;;5.83;5.33;;;;;;;11.41;62.77;99673.92;1884132;103;25437;-88
2021/12/31 04:51:44;;;;;;;5.05;4.65;;;;;;;11.42;62.77;99673.05;1869052;104;26447;-89
2021/12/31 04:55:05;;;;;;;5.65;5.15;;;;;;;11.43;62.79;99682.19;1866751;105;25825;-80
2021/12/31 04:58:26;;;;;;;5.72;5.22;;;;;;;11.44;62.79;99676.53;1866186;105;25410;-93
2021/12/31 05:01:49;;;;;;;5.70;5.20;;;;;;;11.46;62.83;99681.34;1847848;105;25776;-84
2021/12/31 05:05:44;;;;;;;5.35;4.92;;;;;;;11.47;62.84;99685.69;1939594;99;25768;-91
2021/12/31 05:09:13;;;;;;;5.83;5.33;;;;;;;11.49;62.86;99673.55;2034866;95;25942;-93
2021/12/31 05:13:01;;;;;;;5.95;5.35;;;;;;;11.50;62.85;99665.71;2068906;93;25764;-83
2021/12/31 05:16:26;;;;;;;5.67;5.17;;;;;;;11.50;62.82;99660.49;2075462;93;25740;-91
2021/12/31 05:20:15;;;;;;;5.53;5.00;;;;;;;11.54;62.81;99672.73;2060554;94;26034;-92
2021/12/31 05:24:14;;;;;;;5.80;5.30;;;;;;;11.55;62.80;99665.33;2081466;93;26456;-82
2021/12/31 05:28:11;;;;;;;5.35;4.90;;;;;;;11.56;62.82;99658.37;2079032;95;25776;-79
2021/12/31 05:31:57;;;;;;;5.22;4.72;;;;;;;11.57;62.80;99658.37;2063702;93;25839;-88
2021/12/31 05:39:27;;;;;;;5.70;5.17;;;;;;;11.61;62.80;99668.44;2058946;93;25749;-92
2021/12/31 05:43:11;;;;;;;5.10;4.62;;;;;;;11.63;62.82;99678.88;1975366;100;25768;-86
2021/12/31 05:46:55;;;;;;;;;;;;;;;;;;;;;
2021/12/31 05:50:45;;;;;;;4.70;4.30;;;;;;;11.67;62.84;99664.98;1957540;98;25393;-86
2021/12/31 05:54:29;;;;;;;5.35;4.85;;;;;;;11.68;62.85;99665.01;1939815;100;25784;-83
2021/12/31 05:58:02;;;;;;;;;;;;;;;;;;;;;
2021/12/31 06:01:53;;;;;;;4.95;4.50;;;;;;;11.70;62.85;99672.84;1961262;98;26046;-90
2021/12/31 06:05:39;;;;;;;5.22;4.83;;;;;;;11.71;62.85;99667.64;1936680;99;25782;-86
2021/12/31 06:09:08;;;;;;;5.20;4.70;;;;;;;11.74;62.83;99662.85;1959604;100;25913;-85
2021/12/31 06:12:37;;;;;;;5.10;4.70;;;;;;;11.75;62.84;99660.27;1952652;101;25881;-89
2021/12/31 06:20:09;;;;;;;;;;;;;;;;;;;;;
2021/12/31 06:23:28;;;;;;;4.78;4.25;;;;;;;11.77;62.87;99658.52;1881592;103;25798;-85
2021/12/31 06:26:52;;;;;;;3.95;3.65;;;;;;;11.78;62.86;99664.21;1843839;107;25804;-84
2021/12/31 06:30:13;;;;;;;4.45;4.12;;;;;;;11.80;62.88;99669.00;1844705;106;25992;-85
2021/12/31 06:33:58;;;;;;;4.70;4.03;;;;;;;11.82;62.89;99672.94;1846150;107;25985;-80
2021/12/31 06:37:38;;;;;;;4.58;4.20;;;;;;;11.84;62.88;99675.14;1850610;104;25894;-82
2021/12/31 06:41:16;;;;;;;4.72;4.33;;;;;;;11.85;62.88;99670.82;1882117;104;25551;-82
2021/12/31 06:44:56;;;;;;;4.33;3.90;;;;;;;11.87;62.89;99671.69;1867852;104;25824;-80
2021/12/31 06:48:28;;;;;;;4.15;3.83;;;;;;;11.87;62.89;99673.86;1867886;105;25948;-82
2021/12/31 06:51:55;;;;;;;4.45;4.05;;;;;;;11.88;62.89;99672.12;1916862;101;25762;-83
2021/12/31 06:55:53;;;;;;;;;;;;;;;;;;;;;
2021/12/31 06:59:28;;;;;;;4.97;4.63;;;;;;;11.90;62.88;99683.03;1842594;106;25847;-81
2021/12/31 07:03:21;;;;;;;4.53;4.23;;;;;;;11.91;62.86;99680.84;1845265;107;25802;-91
2021/12/31 07:06:53;;;;;;;4.45;4.05;;;;;;;11.94;62.89;99678.70;1843459;106;25604;-82
2021/12/31 07:10:15;;;;;;;4.80;3.33;;;;;;;11.94;62.89;99684.79;1808780;106;25815;-83
2021/12/31 07:14:05;;;;;;;;;;;;;;;;;;;;;
2021/12/31 07:17:28;;;;;;;3.65;3.35;;;;;;;11.98;62.89;99689.20;1779365;108;25858;-80
2021/12/31 07:20:54;;;;;;;4.25;3.95;;;;;;;11.98;62.88;99693.11;1795033;107;25931;-90
2021/12/31 07:24:33;;;;;;;2.70;2.50;;;;;;;12.01;62.87;99687.91;1834211;106;25843;-84
2021/12/31 07:27:58;;;;;;;3.20;2.90;;;;;;;12.04;62.87;99695.74;1889966;101;25891;-83
2021/12/31 07:31:32;;;;;;;3.60;3.30;;;;;;;12.07;62.82;99697.51;1959237;99;25938;-86
2021/12/31 07:35:07;;;;;;;2.77;2.58;;;;;;;12.08;62.84;99701.86;1929737;102;25333;-85
2021/12/31 07:38:38;;;;;;;3.05;2.70;;;;;;;12.11;62.87;99704.94;1873351;102;25918;-85
2021/12/31 07:42:03;;;;;;;3.75;3.42;;;;;;;12.13;62.82;99708.44;1824930;106;25926;-86
2021/12/31 07:45:43;;;;;;;2.90;2.70;;;;;;;12.14;62.81;99704.95;1834631;107;25433;-84
2021/12/31 07:49:37;;;;;;;2.75;2.55;;;;;;;12.15;62.85;99708.00;1834738;107;25885;-86
2021/12/31 07:53:23;;;;;;;3.20;2.92;;;;;;;12.16;62.83;99694.97;1835068;107;25746;-81
2021/12/31 07:56:50;;;;;;;2.77;2.58;;;;;;;12.20;62.83;99706.30;1827389;107;25978;-81
2021/12/31 08:00:51;;;;;;;;;;;;;;;;;;;;;
2021/12/31 08:04:17;;;;;;;2.35;2.17;;;;;;;12.23;62.80;99695.87;1894472;102;26540;-85
2021/12/31 08:07:59;;;;;;;2.92;2.62;;;;;;;12.24;62.77;99695.00;1905684;103;25851;-93
2021/12/31 08:11:37;;;;;;;2.62;2.42;;;;;;;12.25;62.80;99693.72;2006204;98;25624;-84
2021/12/31 08:15:21;;;;;;;2.45;2.25;;;;;;;12.28;62.76;99689.82;2009943;94;25863;-90
2021/12/31 08:19:00;;;;;;;4.05;2.37;;;;;;;12.31;62.75;99689.37;2009569;97;25582;-89
2021/12/31 08:22:38;;;;;;;2.10;1.90;;;;;;;12.33;62.76;99694.19;2008310;98;25784;-92
2021/12/31 08:26:11;;;;;;;2.45;2.25;;;;;;;12.34;62.76;99696.80;2019006;97;25498;-85
2021/12/31 08:29:46;;;;;;;2.27;2.08;;;;;;;12.36;62.75;99696.83;2023282;96;25847;-87
2021/12/31 08:33:26;;;;;;;2.55;2.30;;;;;;;12.37;62.72;99694.64;2058694;94;25859;-84
2021/12/31 08:37:23;;;;;;;2.83;2.47;;;;;;;12.38;62.72;99693.77;2059986;92;25815;-84
2021/12/31 08:41:26;;;;;;;3.22;2.62;;;;;;;12.39;62.76;99696.41;2043706;96;25795;-90
2021/12/31 08:44:57;;;;;;;2.90;2.70;;;;;;;12.42;62.73;99687.68;2046366;94;25751;-87
2021/12/31 08:48:41;;;;;;;2.62;2.40;;;;;;;12.44;62.72;99689.88;2024171;96;25902;-86
2021/12/31 08:52:16;;;;;;;2.85;2.58;;;;;;;12.46;62.71;99686.86;2023333;93;25946;-89
2021/12/31 08:59:25;;;;;;;2.52;2.12;;;;;;;12.50;62.71;99689.92;1937869;100;25793;-93
2021/12/31 09:02:58;;;;;;;3.40;2.45;;;;;;;12.53;62.73;99687.32;1940609;100;25718;-89
2021/12/31 09:06:32;;;;;;;2.25;2.05;;;;;;;12.55;62.71;99682.09;1942476;100;25874;-86
2021/12/31 09:10:07;;;;;;;2.25;2.05;;;;;;;12.57;62.70;99685.59;1963408;100;25931;-92
2021/12/31 09:13:41;;;;;;;2.08;1.80;;;;;;;12.59;62.71;99683.43;1938762;100;25893;-89
2021/12/31 09:17:23;;;;;;;2.00;1.77;;;;;;;12.63;62.69;99686.49;1936741;98;25840;-82
2021/12/31 09:20:53;;;;;;;2.22;2.02;;;;;;;12.65;62.70;99683.88;1941809;100;25345;-92
2021/12/31 09:24:32;;;;;;;1.57;1.47;;;;;;;12.68;62.67;99687.80;1938816;100;26515;-83
2021/12/31 09:32:09;;;;;;;2.08;1.80;;;;;;;12.72;63.49;99680.00;1913459;102;25757;-92
2021/12/31 09:35:36;;;;;;;1.98;1.87;;;;;;;12.78;63.64;99671.28;1909540;101;25847;-90
2021/12/31 09:39:15;;;;;;;2.45;2.25;;;;;;;12.81;63.67;99668.67;1855517;105;25975;-81
2021/12/31 09:42:50;;;;;;;2.05;1.87;;;;;;;12.84;63.65;99670.00;1854869;105;25873;-83
2021/12/31 09:46:38;;;;;;;1.77;1.50;;;;;;;12.87;63.60;99669.14;1855604;105;25765;-84
2021/12/31 09:50:08;;;;;;;2.08;1.75;;;;;;;12.90;63.55;99668.71;1836465;106;25795;-80
2021/12/31 09:53:30;;;;;;;1.87;1.55;;;;;;;12.93;63.50;99667.41;1944326;100;26111;-84
2021/12/31 09:57:04;;;;;;;1.75;1.30;;;;;;;12.94;63.44;99666.98;1974071;97;25823;-85
2021/12/31 10:00:33;;;;;;;1.85;1.75;;;;;;;12.95;63.37;99670.02;2058600;93;25747;-85
2021/12/31 10:04:01;;;;;;;1.62;1.52;;;;;;;12.95;63.34;99664.34;2096273;93;25750;-88
2021/12/31 10:07:30;;;;;;;1.67;1.57;;;;;;;12.97;63.29;99668.30;2094098;93;25739;-85
2021/12/31 10:11:25;;;;;;;2.30;2.00;;;;;;;12.98;63.25;99656.51;2094193;93;25872;-85
2021/12/31 10:15:04;;;;;;;1.32;1.22;;;;;;;13.00;63.25;99646.94;2089110;94;26116;-84
2021/12/31 10:18:40;;;;;;;1.98;1.40;;;;;;;13.05;63.58;99655.22;2272399;84;25996;-86
2021/12/31 10:22:13;;;;;;;1.37;1.27;;;;;;;13.07;63.42;99648.26;2300772;85;25659;-86
2021/12/31 10:29:09;;;;;;;3.00;1.10;;;;;;;13.07;63.30;99646.52;2255944;87;25661;-85
2021/12/31 10:32:40;;;;;;;1.67;1.30;;;;;;;13.10;63.27;99643.03;2255839;87;25816;-85
2021/12/31 10:36:06;;;;;;;1.30;1.10;;;;;;;13.11;63.25;99639.53;2254408;87;25677;-88
2021/12/31 10:39:49;;;;;;;2.40;1.57;;;;;;;13.13;63.22;99645.66;2205620;86;25661;-84
2021/12/31 10:43:25;;;;;;;1.27;1.17;;;;;;;13.13;63.25;99634.75;2255104;87;25805;-88
2021/12/31 10:46:59;;;;;;;1.75;1.35;;;;;;;13.13;63.24;99637.81;2153949;90;25712;-83
2021/12/31 10:50:22;;;;;;;4.80;1.22;;;;;;;13.15;63.24;99642.14;2151268;91;25784;-82
2021/12/31 10:53:53;;;;;;;1.40;1.30;;;;;;;13.16;63.26;99628.21;2176446;89;25781;-87
2021/12/31 10:57:41;;;;;;;1.15;1.05;;;;;;;13.20;63.10;99630.39;2171131;89;25803;-84
2021/12/31 11:01:08;;;;;;;1.32;1.22;;;;;;;13.20;63.10;99630.39;2172047;89;25908;-86
2021/12/31 11:04:41;;;;;;;1.47;1.32;;;;;;;13.22;63.28;99631.25;2082544;93;25844;-87
2021/12/31 11:08:13;;;;;;;1.50;1.35;;;;;;;13.25;63.26;99629.98;2092261;92;26038;-85
2021/12/31 11:11:47;;;;;;;1.72;1.30;;;;;;;13.26;63.29;99623.00;2065734;95;25868;-84
2021/12/31 11:15:42;;;;;;;2.10;1.70;;;;;;;13.28;63.29;99626.06;2060421;95;25770;-83
2021/12/31 11:19:13;;;;;;;1.65;1.37;;;;;;;13.30;63.31;99620.84;2033300;95;25877;-83
2021/12/31 11:22:53;;;;;;;1.90;1.50;;;;;;;13.32;63.31;99619.95;2034050;96;25789;-85
2021/12/31 11:26:28;;;;;;;2.15;1.47;;;;;;;13.33;63.31;99611.66;2034361;95;25676;-82
2021/12/31 11:30:05;;;;;;;1.50;1.27;;;;;;;13.34;63.30;99609.05;2042038;95;25870;-87
2021/12/31 11:34:27;;;;;;;2.10;1.30;;;;;;;13.36;63.31;99602.49;2112699;93;26022;-84
2021/12/31 11:37:50;;;;;;;2.22;1.65;;;;;;;13.37;63.32;99592.48;2112544;93;25805;-86
2021/12/31 11:41:45;;;;;;;1.85;1.47;;;;;;;13.37;63.30;99588.11;2081294;93;25932;-86
2021/12/31 11:45:17;;;;;;;2.42;2.22;;;;;;;13.39;63.28;99590.27;2077456;94;25653;-84
2021/12/31 11:49:35;;;;;;;1.60;1.45;;;;;;;13.40;63.30;99585.94;2029871;95;33278;-84
2021/12/31 11:53:46;;;;;;;2.00;1.42;;;;;;;13.42;63.31;99595.51;2001353;97;25811;-85
2021/12/31 11:57:49;;;;;;;1.85;1.65;;;;;;;13.43;63.33;99589.83;2002459;97;25774;-80
2021/12/31 12:01:56;;;;;;;1.85;1.65;;;;;;;13.43;63.39;99595.06;2006776;97;25916;-79
2021/12/31 12:05:26;;;;;;;1.70;1.60;;;;;;;13.44;63.37;99594.22;2025788;96;25740;-81
2021/12/31 12:08:56;;;;;;;2.92;1.50;;;;;;;13.44;63.40;99582.44;2033380;94;25966;-80
2021/12/31 12:17:13;;;;;;;2.52;2.33;;;;;;;13.74;65.11;99581.52;2030690;96;25761;-84
2021/12/31 12:20:54;;;;;;;5.33;2.83;;;;;;;13.74;65.55;99585.45;2043320;95;25776;-81
2021/12/31 12:24:33;;;;;;;5.30;2.50;;;;;;;13.81;65.74;99591.11;2042019;95;25888;-82
2021/12/31 12:31:55;;;;;;;3.92;2.47;;;;;;;13.95;66.69;99583.20;2012998;95;25993;-81
2021/12/31 12:35:39;;;;;;;2.95;2.62;;;;;;;13.95;66.69;99583.20;1918910;101;25741;-82
2021/12/31 12:39:13;;;;;;;4.17;3.22;;;;;;;13.94;66.34;99587.58;1920272;101;25328;-82
2021/12/31 12:42:58;;;;;;;4.03;3.60;;;;;;;13.91;66.19;99578.41;1926199;102;26376;-82
2021/12/31 12:46:24;;;;;;;8.18;4.22;;;;;;;13.90;66.30;99588.88;1907603;101;26521;-83
2021/12/31 12:50:09;;;;;;;5.13;3.90;;;;;;;13.94;66.48;99582.34;1895533;102;26457;-83
2021/12/31 12:53:41;;;;;;;3.55;2.95;;;;;;;13.85;66.75;99550.05;1871366;104;25566;-83
2021/12/31 12:57:33;;;;;;;7.67;2.77;;;;;;;13.85;66.75;99550.05;1875380;100;25974;-83
2021/12/31 13:01:15;;;;;;;3.67;2.65;;;;;;;14.14;67.39;99570.89;1871254;104;26034;-83
2021/12/31 13:04:57;;;;;;;2.83;2.62;;;;;;;14.19;67.31;99569.14;1927307;102;25858;-83
2021/12/31 13:12:27;;;;;;;4.35;2.98;;;;;;;14.24;67.57;99571.32;2015290;97;25837;-84
2021/12/31 13:16:15;;;;;;;7.03;3.45;;;;;;;14.40;67.66;99540.63;2086585;94;25703;-81
2021/12/31 13:19:45;;;;;;;4.50;3.35;;;;;;;14.40;67.66;99540.63;2086775;94;25737;-81
2021/12/31 13:23:24;;;;;;;5.92;3.50;;;;;;;14.47;67.15;99562.45;2084119;92;25791;-83
2021/12/31 13:27:05;;;;;;;3.77;2.90;;;;;;;14.40;66.89;99568.16;2088040;93;25781;-83
2021/12/31 13:30:30;;;;;;;3.15;2.85;;;;;;;14.32;66.77;99557.72;2092905;90;25853;-82
2021/12/31 13:34:30;;;;;;;4.92;3.02;;;;;;;14.28;66.59;99560.38;2165746;86;25879;-82
2021/12/31 13:38:42;;;;;;;4.20;3.15;;;;;;;14.26;66.61;99559.50;1962377;98;26140;-83
2021/12/31 13:42:46;;;;;;;3.62;3.08;;;;;;;14.22;66.32;99545.98;1885178;103;26037;-82
2021/12/31 13:46:16;;;;;;;4.97;3.35;;;;;;;14.17;66.74;99548.60;1883249;103;25853;-83
2021/12/31 13:50:25;;;;;;;5.28;3.95;;;;;;;14.11;66.38;99544.72;1885665;103;26415;-85
2021/12/31 13:53:53;;;;;;;5.25;3.42;;;;;;;13.99;66.69;99521.17;1883482;104;25871;-82
2021/12/31 14:01:39;;;;;;;5.37;3.87;;;;;;;14.09;66.55;99546.02;1855064;105;56419;-81
2021/12/31 14:05:23;;;;;;;;;;;;;;;;;;;;;
2021/12/31 14:08:50;;;;;;;3.58;2.62;;;;;;;14.07;66.72;99554.77;1835194;104;25864;-82
2021/12/31 14:13:06;;;;;;;6.05;2.33;;;;;;;14.13;67.51;99554.30;1810130;107;25958;-82
2021/12/31 14:17:03;;;;;;;3.37;2.40;;;;;;;14.13;67.51;99554.30;1840320;103;25836;-82
2021/12/31 14:20:43;;;;;;;3.67;2.15;;;;;;;14.22;67.35;99563.89;1890591;103;25850;-81
2021/12/31 14:24:07;;;;;;;2.52;2.12;;;;;;;14.29;67.40;99567.36;1842672;105;25943;-81
2021/12/31 14:27:36;;;;;;;5.37;2.25;;;;;;;14.35;67.43;99562.09;1843200;105;25897;-81
2021/12/31 14:31:13;;;;;;;5.10;2.42;;;;;;;14.27;67.56;99542.88;1891973;102;25813;-81
2021/12/31 14:34:43;;;;;;;3.12;2.83;;;;;;;14.45;67.55;99566.41;1913307;102;25790;-81
2021/12/31 14:38:28;;;;;;;4.05;2.67;;;;;;;14.44;67.29;99555.91;1977442;97;25821;-81
2021/12/31 14:42:04;;;;;;;2.83;2.05;;;;;;;14.44;67.39;99558.53;2033266;96;25786;-80
2021/12/31 14:45:25;;;;;;;3.00;2.27;;;;;;;14.46;67.51;99560.27;1999431;96;25829;-81
2021/12/31 14:49:00;;;;;;;4.15;2.70;;;;;;;14.50;67.60;99559.41;2034774;97;25949;-80
2021/12/31 14:52:43;;;;;;;5.33;2.75;;;;;;;14.53;67.74;99568.56;2056923;95;25682;-80
2021/12/31 14:56:19;;;;;;;2.98;2.55;;;;;;;14.57;67.48;99562.42;2066949;94;26001;-81
2021/12/31 14:59:58;;;;;;;6.03;2.80;;;;;;;14.56;67.41;99565.06;2066535;95;26355;-81
2021/12/31 15:03:45;;;;;;;;;;;;;;;;;;;;;
2021/12/31 15:07:12;;;;;;;2.83;2.55;;;;;;;14.57;67.32;99565.05;2034786;94;25749;-81
2021/12/31 15:10:38;;;;;;;3.77;2.80;;;;;;;14.37;67.29;99526.22;2072177;93;25840;-81
2021/12/31 15:14:13;;;;;;;3.95;3.12;;;;;;;14.58;67.22;99548.89;2072803;95;32277;-81
2021/12/31 15:17:38;;;;;;;3.65;2.80;;;;;;;14.57;67.19;99549.75;2071712;93;25886;-80
2021/12/31 15:21:11;;;;;;;3.30;2.33;;;;;;;14.59;67.49;99565.05;2099224;92;25750;-80
2021/12/31 15:25:02;;;;;;;3.67;3.00;;;;;;;14.63;67.23;99549.27;2172767;89;25283;-81
2021/12/31 15:28:27;;;;;;;3.70;3.33;;;;;;;14.62;67.25;99535.73;2233242;88;25776;-80
2021/12/31 15:31:54;;;;;;;3.62;3.00;;;;;;;14.55;67.38;99526.61;2232306;87;25739;-82
2021/12/31 15:35:30;;;;;;;3.77;3.02;;;;;;;14.66;67.31;99537.89;2210151;88;25725;-80
2021/12/31 15:39:08;;;;;;;4.25;2.58;;;;;;;14.56;67.05;99509.98;2232855;88;25853;-80
2021/12/31 15:42:26;;;;;;;3.42;2.70;;;;;;;14.67;67.09;99535.70;2172381;89;25966;-80
2021/12/31 15:46:03;;;;;;;6.30;2.55;;;;;;;14.68;67.08;99528.28;2173937;90;25688;-81
2021/12/31 15:49:22;;;;;;;4.62;2.47;;;;;;;14.71;67.02;99522.11;2136958;90;25732;-82
2021/12/31 15:53:06;;;;;;;3.30;2.15;;;;;;;14.69;66.83;99521.27;2138780;90;25370;-82
2021/12/31 15:56:44;;;;;;;3.30;2.90;;;;;;;14.61;66.97;99501.22;2175058;89;25809;-81
2021/12/31 16:00:28;;;;;;;3.60;2.75;;;;;;;14.75;67.05;99523.83;2173022;89;26123;-80
2021/12/31 16:03:47;;;;;;;3.25;2.60;;;;;;;14.78;66.77;99527.74;1954716;95;25891;-81
2021/12/31 16:07:46;;;;;;;3.08;2.67;;;;;;;14.78;66.79;99523.39;1994926;99;25738;-81
2021/12/31 16:11:25;;;;;;;3.70;3.02;;;;;;;14.78;66.73;99521.19;1991621;99;25900;-81
2021/12/31 16:14:49;;;;;;;3.85;2.42;;;;;;;14.77;66.61;99504.58;1994790;97;25750;-81
2021/12/31 16:18:38;;;;;;;;;;;;;;;;;;;;;
2021/12/31 16:22:11;;;;;;;4.53;2.75;;;;;;;14.83;66.69;99505.84;1904234;102;25861;-81
2021/12/31 16:25:48;;;;;;;3.87;2.47;;;;;;;14.84;66.58;99508.03;1886472;103;25879;-81
2021/12/31 16:29:40;;;;;;;3.92;2.83;;;;;;;14.81;66.54;99502.35;1887463;104;25699;-81
2021/12/31 16:33:15;;;;;;;3.83;2.92;;;;;;;14.85;66.58;99512.41;1862829;104;26649;-81
2021/12/31 16:36:47;;;;;;;3.65;2.75;;;;;;;14.79;66.38;99488.84;1864212;104;26166;-81
2021/12/31 16:40:23;;;;;;;4.78;3.65;;;;;;;14.86;66.28;99507.59;1881549;103;25974;-81
2021/12/31 16:44:03;;;;;;;5.05;3.37;;;;;;;14.83;66.10;99499.73;1920115;99;25883;-89
2021/12/31 16:48:35;;;;;;;;;;;;;;;;;;;;;
2021/12/31 16:51:58;;;;;;;4.37;3.12;;;;;;;14.77;65.89;99490.59;1889729;101;25887;-89
2021/12/31 16:59:31;;;;;;;4.35;3.02;;;;;;;14.70;65.83;99477.09;1916505;96;25892;-90
2021/12/31 17:02:58;;;;;;;;;;;;;;;;;;;;;
2021/12/31 17:07:13;;;;;;;;;;;;;;;;;;;;;
2021/12/31 17:19:01;;;;;;;4.80;3.50;;;;;;;14.67;66.01;99479.30;1922406;102;25938;-91
2021/12/31 17:45:20;;;;;;;;;;;;;;;;;;;;;
2021/12/31 17:48:52;;;;;;;5.62;3.98;;;;;;;15.11;66.89;99446.10;1783421;107;25877;-86
2021/12/31 17:52:34;;;;;;;;;;;;;;;;;;;;;
2021/12/31 17:59:45;;;;;;;;;;;;;;;;;;;;;
2021/12/31 18:03:17;;;;;;;;;;;;;;;;;;;;;
2021/12/31 18:06:49;;;;;;;7.83;5.05;;;;;;;15.29;67.84;99461.27;1788381;101;25976;-86
2021/12/31 18:10:24;;;;;;;6.92;4.47;;;;;;;15.29;67.73;99467.84;1742901;112;25950;-84
2021/12/31 18:13:49;;;;;;;8.45;5.22;;;;;;;15.26;67.56;99456.91;1744611;111;25871;-83
2021/12/31 18:17:19;;;;;;;9.20;5.87;;;;;;;15.27;67.90;99448.59;1747441;110;26535;-85
2021/12/31 18:20:48;;;;;;;9.10;5.55;;;;;;;15.28;67.92;99455.13;1772822;109;25962;-89
2021/12/31 18:28:59;;;;;;;;;;;;;;;;;;;;;
2021/12/31 18:32:30;;;;;;;10.30;6.03;;;;;;;15.28;67.73;99452.94;1722826;113;25924;-89
2021/12/31 18:36:14;;;;;;;;;;;;;;;;;;;;;
2021/12/31 18:39:42;;;;;;;6.78;5.30;;;;;;;15.29;67.75;99459.95;1679346;116;26089;-90
2021/12/31 18:43:25;;;;;;;;;;;;;;;;;;;;;
2021/12/31 18:47:19;;;;;;;6.22;5.05;;;;;;;15.30;67.64;99466.48;1729308;111;25934;-84
2021/12/31 18:50:54;;;;;;;;;;;;;;;;;;;;;
2021/12/31 18:54:33;;;;;;;;;;;;;;;;;;;;;
2021/12/31 19:05:21;;;;;;;10.58;5.08;;;;;;;15.36;67.65;99448.50;1678257;116;25816;-84
2021/12/31 19:08:50;;;;;;;12.15;5.08;;;;;;;15.33;67.41;99463.84;1666182;117;25965;-82
2021/12/31 19:12:16;;;;;;;12.90;5.87;;;;;;;15.31;67.57;99455.54;1655345;115;25946;-84
2021/12/31 19:16:00;;;;;;;10.60;5.90;;;;;;;15.32;67.71;99461.20;1644621;120;26217;-85
2021/12/31 19:19:52;;;;;;;9.15;5.17;;;;;;;15.35;67.92;99441.48;1646192;118;25464;-84
2021/12/31 19:23:31;;;;;;;13.68;5.35;;;;;;;15.37;68.05;99449.36;1663438;116;25500;-81
2021/12/31 19:30:48;;;;;;;11.73;6.28;;;;;;;15.39;68.09;99449.78;1764153;109;25790;-87
2021/12/31 19:34:21;;;;;;;6.95;4.30;;;;;;;15.40;68.16;99448.88;1734898;109;26010;-85
2021/12/31 19:42:05;;;;;;;12.65;4.35;;;;;;;15.39;67.97;99451.09;1733772;112;25482;-84
2021/12/31 19:45:50;;;;;;;9.78;3.92;;;;;;;15.41;68.08;99447.98;1735612;111;25827;-80
2021/12/31 19:53:20;;;;;;;7.62;4.22;;;;;;;15.35;67.53;99462.49;1724207;110;26642;-90
2021/12/31 19:56:54;;;;;;;7.12;4.28;;;;;;;15.39;67.73;99460.70;1718587;111;27265;-89
2021/12/31 20:00:34;;;;;;;7.22;4.15;;;;;;;15.41;68.10;99453.24;1803482;105;26005;-89
2021/12/31 20:03:51;;;;;;;8.23;4.37;;;;;;;15.44;67.78;99454.52;1879874;104;25957;-89
2021/12/31 20:11:22;;;;;;;7.58;4.15;;;;;;;15.40;67.71;99457.22;1948991;99;25838;-89
2021/12/31 20:15:09;;;;;;;11.50;4.25;;;;;;;15.39;67.49;99456.77;1901685;102;25794;-88
2021/12/31 20:18:37;;;;;;;5.47;3.50;;;;;;;15.41;67.81;99448.44;1967724;97;25869;-88
2021/12/31 20:22:22;;;;;;;7.37;3.33;;;;;;;15.40;67.67;99460.70;1983939;98;25926;-88